Time;durP1;ratioP1;P1;durP2;ratioP2;P2;SDS_P1;SDS_P2;PMS_P1;PMS_P2;Temp;Humidity;BMP_temperature;BMP_pressure;BME280_temperature;BME280_humidity;BME280_pressure;Samples;Min_cycle;Max_cycle;Signal;HPM_P1;HPM_P2
2022/09/28 00:04:58;;;;;;;;;;;;;;;19.72;45.39;94241.06;10484604;28;2930;-45
2022/09/28 00:09:58;;;;;;;;;;;;;;;19.72;45.39;94230.53;10493202;28;2394;-46
2022/09/28 00:14:59;;;;;;;;;;;;;;;19.72;45.30;94227.91;10497221;28;2685;-47
2022/09/28 00:19:59;;;;;;;;;;;;;;;19.71;45.30;94215.81;10483164;28;2701;-46
2022/09/28 00:25:00;;;;;;;;;;;;;;;19.71;45.21;94210.56;10483241;28;2660;-48
2022/09/28 00:30:00;;;;;;;;;;;;;;;19.71;45.24;94195.56;10481541;28;2733;-46
2022/09/28 00:35:01;;;;;;;;;;;;;;;19.72;45.43;94191.09;10487709;28;2683;-48
2022/09/28 00:40:01;;;;;;;;;;;;;;;19.69;45.34;94170.66;10506839;28;2751;-48
2022/09/28 00:45:02;;;;;;;;;;;;;;;19.67;45.53;94165.72;10511625;28;2734;-46
2022/09/28 00:50:07;;;;;;;;;;;;;;;19.66;45.39;94160.78;10483558;28;2665;-47
2022/09/28 00:55:09;;;;;;;;;;;;;;;19.68;45.16;94142.84;10505669;28;2696;-48
2022/09/28 01:00:10;;;;;;;;;;;;;;;19.66;45.33;94142.38;10513998;28;2741;-47
2022/09/28 01:05:10;;;;;;;;;;;;;;;19.64;45.27;94139.28;10495347;28;2814;-46
2022/09/28 01:10:10;;;;;;;;;;;;;;;19.63;45.30;94127.19;10494671;28;2794;-46
2022/09/28 01:15:11;;;;;;;;;;;;;;;19.63;45.27;94121.94;10497585;28;2524;-44
2022/09/28 01:20:32;;;;;;;;;;;;;;;19.60;45.39;94112.81;10476622;28;2774;-46
2022/09/28 01:25:40;;;;;;;;;;;;;;;19.61;45.12;94103.84;10497309;28;2503;-45
2022/09/28 01:30:41;;;;;;;;;;;;;;;19.60;45.13;94098.91;10483652;28;2703;-46
2022/09/28 01:35:43;;;;;;;;;;;;;;;19.59;45.01;94089.47;10475138;28;2696;-44
2022/09/28 01:40:43;;;;;;;;;;;;;;;19.58;45.44;94070.28;10500243;28;2819;-45
2022/09/28 01:45:45;;;;;;;;;;;;;;;19.57;45.05;94058.25;10489930;28;2816;-45
2022/09/28 01:50:46;;;;;;;;;;;;;;;19.56;45.09;94045.41;10501782;28;2822;-47
2022/09/28 01:55:50;;;;;;;;;;;;;;;19.56;45.01;94046.16;10486449;28;2741;-47
2022/09/28 02:00:52;;;;;;;;;;;;;;;19.54;45.10;94026.56;10468863;28;3116;-47
2022/09/28 02:05:59;;;;;;;;;;;;;;;19.53;45.13;94010.00;10472889;28;2423;-47
2022/09/28 02:11:02;;;;;;;;;;;;;;;19.52;45.38;93991.91;10479052;28;2527;-45
2022/09/28 02:16:04;;;;;;;;;;;;;;;19.53;45.25;93993.47;10553624;28;2513;-48
2022/09/28 02:21:10;;;;;;;;;;;;;;;19.52;45.06;93986.66;10523610;28;2387;-46
2022/09/28 02:26:10;;;;;;;;;;;;;;;19.51;45.14;93964.88;10556783;28;2458;-45
2022/09/28 02:31:11;;;;;;;;;;;;;;;19.51;45.09;93969.34;10547071;28;2740;-46
2022/09/28 02:36:11;;;;;;;;;;;;;;;19.48;45.18;93955.75;10547013;28;2780;-47
2022/09/28 02:41:14;;;;;;;;;;;;;;;19.48;45.01;93950.50;10554325;28;2677;-48
2022/09/28 02:46:28;;;;;;;;;;;;;;;19.47;45.22;93948.94;10552339;28;2748;-45
2022/09/28 02:51:38;;;;;;;;;;;;;;;19.47;44.96;93925.28;10544616;28;2762;-50
2022/09/28 02:56:38;;;;;;;;;;;;;;;19.45;45.03;93919.56;10544125;28;2764;-47
2022/09/28 03:01:51;;;;;;;;;;;;;;;19.46;45.19;93909.81;10548170;28;2673;-50
2022/09/28 03:06:57;;;;;;;;;;;;;;;19.44;45.12;93907.53;10521183;28;2657;-48
2022/09/28 03:11:58;;;;;;;;;;;;;;;19.43;45.11;93898.06;10529491;28;2785;-46
2022/09/28 03:16:59;;;;;;;;;;;;;;;19.44;45.29;93896.22;10562458;27;2882;-45
2022/09/28 03:21:59;;;;;;;;;;;;;;;19.41;45.17;93892.34;10547098;28;2455;-47
2022/09/28 03:26:59;;;;;;;;;;;;;;;19.41;45.10;93897.63;10547237;28;2783;-48
2022/09/28 03:32:00;;;;;;;;;;;;;;;19.44;45.18;93904.13;10539478;28;2450;-48
2022/09/28 03:37:00;;;;;;;;;;;;;;;19.48;44.67;93892.69;10540384;28;2738;-44
2022/09/28 03:42:00;;;;;;;;;;;;;;;19.54;44.55;93889.91;10548236;28;2348;-52
2022/09/28 03:47:01;;;;;;;;;;;;;;;19.53;44.49;93883.09;10548928;28;2688;-45
2022/09/28 03:52:01;;;;;;;;;;;;;;;19.55;44.23;93871.19;10539935;28;2827;-48
2022/09/28 03:57:03;;;;;;;;;;;;;;;19.61;44.36;93874.41;10558997;27;2767;-45
2022/09/28 04:02:04;;;;;;;;;;;;;;;19.65;44.26;93870.84;10546525;28;2717;-45
2022/09/28 04:07:04;;;;;;;;;;;;;;;19.69;43.95;93863.13;10543741;28;2510;-46
2022/09/28 04:12:05;;;;;;;;;;;;;;;19.73;43.67;93850.88;10542356;28;2724;-47
2022/09/28 04:17:06;;;;;;;;;;;;;;;19.79;43.95;93854.88;10541759;28;2771;-51
2022/09/28 04:22:06;;;;;;;;;;;;;;;19.82;43.86;93849.03;10537730;28;2471;-50
2022/09/28 04:32:25;;;;;;;;;;;;;;;19.89;43.36;93847.44;10542798;28;2352;-49
2022/09/28 04:37:26;;;;;;;;;;;;;;;19.93;43.23;93858.09;10544232;28;2888;-45
2022/09/28 04:42:27;;;;;;;;;;;;;;;19.95;43.00;93845.41;10557709;27;2764;-45
2022/09/28 04:47:28;;;;;;;;;;;;;;;19.97;42.59;93848.53;10542453;28;2467;-48
2022/09/28 04:52:28;;;;;;;;;;;;;;;20.01;42.75;93857.31;10537620;28;2736;-46
2022/09/28 04:57:29;;;;;;;;;;;;;;;20.03;42.52;93855.16;10541093;28;2885;-46
2022/09/28 05:02:29;;;;;;;;;;;;;;;20.05;42.81;93868.75;10547226;28;2818;-48
2022/09/28 05:07:30;;;;;;;;;;;;;;;20.06;42.40;93875.53;10543304;28;2686;-46
2022/09/28 05:12:30;;;;;;;;;;;;;;;20.07;42.25;93874.47;10537245;28;2632;-45
2022/09/28 05:17:30;;;;;;;;;;;;;;;20.08;42.39;93873.38;10536996;28;2893;-50
2022/09/28 05:22:31;;;;;;;;;;;;;;;20.10;42.55;93865.94;10536259;28;2645;-49
2022/09/28 05:27:31;;;;;;;;;;;;;;;20.12;42.26;93847.97;10535511;28;2840;-46
2022/09/28 05:32:31;;;;;;;;;;;;;;;20.12;42.13;93840.09;10536979;28;2543;-45
2022/09/28 05:37:32;;;;;;;;;;;;;;;20.14;42.09;93830.03;10537574;28;2686;-46
2022/09/28 05:42:32;;;;;;;;;;;;;;;20.13;42.02;93810.81;10523104;28;2916;-47
2022/09/28 05:47:36;;;;;;;;;;;;;;;20.16;42.23;93802.31;10539566;28;2887;-46
2022/09/28 05:52:46;;;;;;;;;;;;;;;20.18;41.78;93805.41;10536766;28;2912;-46
2022/09/28 05:57:46;;;;;;;;;;;;;;;20.18;41.77;93802.00;10534616;28;2963;-45
2022/09/28 06:02:54;;;;;;;;;;;;;;;20.23;42.40;93786.84;10531860;28;3043;-46
2022/09/28 06:07:55;;;;;;;;;;;;;;;20.23;41.96;93791.34;10530446;28;2868;-45
2022/09/28 06:12:56;;;;;;;;;;;;;;;20.26;41.94;93773.03;10517839;28;2570;-44
2022/09/28 06:18:14;;;;;;;;;;;;;;;20.27;42.01;93771.97;10532972;28;2622;-47
2022/09/28 06:23:14;;;;;;;;;;;;;;;20.28;41.63;93770.88;10523310;28;2893;-44
2022/09/28 06:28:15;;;;;;;;;;;;;;;20.31;41.78;93773.94;10527496;28;2833;-46
2022/09/28 06:33:15;;;;;;;;;;;;;;;20.34;41.74;93773.31;10511224;28;2567;-47
2022/09/28 06:38:15;;;;;;;;;;;;;;;20.35;41.96;93766.97;10508238;28;2928;-45
2022/09/28 06:43:16;;;;;;;;;;;;;;;20.37;42.11;93772.66;10509357;28;2816;-45
2022/09/28 06:48:16;;;;;;;;;;;;;;;20.39;41.91;93776.53;10515247;28;2904;-45
2022/09/28 06:53:16;;;;;;;;;;;;;;;20.40;41.80;93770.19;10506659;28;2891;-47
2022/09/28 06:58:18;;;;;;;;;;;;;;;20.41;42.25;93769.09;10529963;28;2611;-47
2022/09/28 07:03:19;;;;;;;;;;;;;;;20.41;41.73;93779.63;10504199;28;2912;-45
2022/09/28 07:08:23;;;;;;;;;;;;;;;20.45;42.26;93787.63;10495792;28;2569;-47
2022/09/28 07:13:26;;;;;;;;;;;;;;;20.47;41.72;93791.50;10519200;28;2929;-46
2022/09/28 07:18:28;;;;;;;;;;;;;;;20.49;41.97;93794.56;10519946;28;2566;-46
2022/09/28 07:23:29;;;;;;;;;;;;;;;20.49;41.96;93799.84;10498556;28;3160;-48
2022/09/28 07:28:30;;;;;;;;;;;;;;;20.49;41.55;93794.56;10524441;28;2824;-45
2022/09/28 07:33:31;;;;;;;;;;;;;;;20.49;41.90;93797.22;10504922;28;2904;-44
2022/09/28 07:38:32;;;;;;;;;;;;;;;20.51;41.60;93802.16;10505758;28;2892;-48
2022/09/28 07:43:32;;;;;;;;;;;;;;;20.51;41.63;93810.81;10523932;28;2544;-47
2022/09/28 07:48:35;;;;;;;;;;;;;;;20.54;41.52;93812.06;10519216;28;2870;-48
2022/09/28 07:53:37;;;;;;;;;;;;;;;20.55;41.47;93811.72;10514746;28;2843;-44
2022/09/28 07:58:37;;;;;;;;;;;;;;;20.56;41.64;93821.19;10535927;28;2872;-45
2022/09/28 08:03:38;;;;;;;;;;;;;;;20.57;41.63;93822.72;10541883;28;2563;-48
2022/09/28 08:08:43;;;;;;;;;;;;;;;20.59;41.58;93814.47;10524982;28;2946;-47
2022/09/28 08:13:45;;;;;;;;;;;;;;;20.58;41.21;93826.13;10505864;28;2824;-49
2022/09/28 08:18:47;;;;;;;;;;;;;;;20.58;41.79;93834.78;10510120;28;2824;-50
2022/09/28 08:23:47;;;;;;;;;;;;;;;20.63;41.73;93831.97;10526513;28;2537;-48
2022/09/28 08:28:48;;;;;;;;;;;;;;;20.64;41.81;93819.56;10507384;28;2903;-47
2022/09/28 08:33:52;;;;;;;;;;;;;;;20.65;41.71;93834.28;10511358;28;2864;-47
2022/09/28 08:38:53;;;;;;;;;;;;;;;20.64;41.86;93833.50;10509578;28;2896;-47
2022/09/28 08:43:56;;;;;;;;;;;;;;;20.65;41.46;93845.56;10515467;28;2539;-46
2022/09/28 08:49:05;;;;;;;;;;;;;;;20.66;41.46;93846.34;10514738;28;2906;-45
2022/09/28 08:54:11;;;;;;;;;;;;;;;20.66;41.35;93860.28;10506834;28;2762;-48
2022/09/28 08:59:12;;;;;;;;;;;;;;;20.67;41.64;93872.34;10519113;27;2598;-46
2022/09/28 09:04:13;;;;;;;;;;;;;;;20.69;41.57;93870.16;10514499;28;2896;-46
2022/09/28 09:09:13;;;;;;;;;;;;;;;20.69;41.66;93933.34;10517049;28;2908;-48
2022/09/28 09:14:28;;;;;;;;;;;;;;;20.70;41.78;93953.34;10523376;28;2975;-46
2022/09/28 09:19:29;;;;;;;;;;;;;;;20.71;41.53;93954.13;10527562;28;2618;-50
2022/09/28 09:24:41;;;;;;;;;;;;;;;20.71;42.08;93949.59;10520435;28;2861;-47
2022/09/28 09:29:44;;;;;;;;;;;;;;;20.72;41.99;93943.28;10525416;28;2883;-45
2022/09/28 09:34:44;;;;;;;;;;;;;;;20.73;41.78;93936.91;10503357;28;2829;-47
2022/09/28 09:39:45;;;;;;;;;;;;;;;20.77;42.61;93944.97;10526362;28;2824;-45
2022/09/28 09:44:57;;;;;;;;;;;;;;;20.80;41.92;93958.25;10531424;28;2566;-46
2022/09/28 09:50:11;;;;;;;;;;;;;;;20.80;42.16;93968.78;10543639;28;2837;-47
2022/09/28 09:55:15;;;;;;;;;;;;;;;20.80;41.69;93968.78;10522831;28;2571;-46
2022/09/28 10:00:16;;;;;;;;;;;;;;;20.80;41.65;93976.69;10521838;28;2554;-48
2022/09/28 10:05:20;;;;;;;;;;;;;;;20.80;41.71;93976.69;10546753;28;2823;-44
2022/09/28 10:10:22;;;;;;;;;;;;;;;20.83;41.82;93977.91;10554723;27;2652;-46
2022/09/28 10:15:27;;;;;;;;;;;;;;;20.82;41.85;93971.88;10538810;28;3035;-44
2022/09/28 10:20:28;;;;;;;;;;;;;;;20.83;42.34;93978.69;10537377;28;2539;-48
2022/09/28 10:25:28;;;;;;;;;;;;;;;20.82;41.49;93987.66;10551094;28;2640;-46
2022/09/28 10:30:29;;;;;;;;;;;;;;;20.84;41.93;94000.50;10543794;28;2888;-47
2022/09/28 10:35:30;;;;;;;;;;;;;;;20.82;41.85;93995.56;10518284;28;2880;-45
2022/09/28 10:40:49;;;;;;;;;;;;;;;20.81;42.10;93990.63;10541004;28;2828;-45
2022/09/28 10:45:58;;;;;;;;;;;;;;;20.79;42.38;94001.47;10542364;28;2820;-49
2022/09/28 10:50:59;;;;;;;;;;;;;;;20.77;42.00;94003.63;10554592;28;2958;-46
2022/09/28 10:56:07;;;;;;;;;;;;;;;20.79;42.71;94014.63;10554561;28;2523;-46
2022/09/28 11:01:12;;;;;;;;;;;;;;;20.77;42.15;94008.16;10565340;27;2892;-50
2022/09/28 11:06:12;;;;;;;;;;;;;;;20.81;42.60;93996.66;10553447;27;2922;-45
2022/09/28 11:11:13;;;;;;;;;;;;;;;20.78;42.46;93992.03;10529445;28;2979;-45
2022/09/28 11:16:23;;;;;;;;;;;;;;;20.79;43.01;94000.72;10543875;28;2610;-47
2022/09/28 11:21:25;;;;;;;;;;;;;;;20.78;42.25;94013.09;10541808;28;2904;-47
2022/09/28 11:26:25;;;;;;;;;;;;;;;20.80;43.11;94013.56;10540027;28;2606;-44
2022/09/28 11:31:26;;;;;;;;;;;;;;;20.76;42.49;94003.97;10530880;28;2567;-45
2022/09/28 11:36:30;;;;;;;;;;;;;;;20.76;41.86;94020.53;10548169;28;2560;-46
2022/09/28 11:41:30;;;;;;;;;;;;;;;20.76;42.16;94017.91;10552802;27;2864;-49
2022/09/28 11:46:49;;;;;;;;;;;;;;;20.79;42.15;94003.34;10534507;28;2847;-47
2022/09/28 11:51:50;;;;;;;;;;;;;;;20.77;42.59;94011.53;10531279;28;2896;-44
2022/09/28 11:56:50;;;;;;;;;;;;;;;20.81;42.16;94015.09;10533446;28;2695;-45
2022/09/28 12:01:52;;;;;;;;;;;;;;;20.82;42.45;94040.34;10531009;28;2908;-45
2022/09/28 12:07:05;;;;;;;;;;;;;;;20.77;42.45;94037.88;10537895;28;2856;-46
2022/09/28 12:12:11;;;;;;;;;;;;;;;20.78;43.32;94023.63;10527716;28;2869;-44
2022/09/28 12:17:29;;;;;;;;;;;;;;;20.73;42.25;94026.41;10561610;27;2997;-44
2022/09/28 12:22:34;;;;;;;;;;;;;;;20.72;42.31;94024.88;10531185;28;2551;-46
2022/09/28 12:27:55;;;;;;;;;;;;;;;20.73;42.12;94039.59;10539229;28;3019;-46
2022/09/28 12:32:57;;;;;;;;;;;;;;;20.72;42.80;94027.53;10549706;27;2881;-44
2022/09/28 12:38:16;;;;;;;;;;;;;;;20.71;42.42;94022.59;10539621;27;3202;-45
2022/09/28 12:43:30;;;;;;;;;;;;;;;20.71;42.42;94035.75;10510433;28;2617;-48
2022/09/28 12:48:48;;;;;;;;;;;;;;;20.70;42.40;94037.59;10540183;28;2930;-47
2022/09/28 12:53:51;;;;;;;;;;;;;;;20.69;42.27;94033.41;10537619;28;3018;-48
2022/09/28 12:59:00;;;;;;;;;;;;;;;20.69;42.23;94022.13;10536416;28;2782;-46
2022/09/28 13:04:03;;;;;;;;;;;;;;;20.69;42.20;94038.66;10550698;27;2852;-48
2022/09/28 13:09:18;;;;;;;;;;;;;;;20.70;42.27;94026.28;10521659;28;2991;-45
2022/09/28 13:14:28;;;;;;;;;;;;;;;20.70;42.25;94032.34;10549609;27;2926;-46
2022/09/28 13:19:28;;;;;;;;;;;;;;;20.71;42.45;94039.13;10518154;28;2848;-46
2022/09/28 13:24:31;;;;;;;;;;;;;;;20.71;42.15;94041.75;10537671;28;3023;-45
2022/09/28 13:29:33;;;;;;;;;;;;;;;20.72;42.20;94030.16;10549010;27;2885;-45
2022/09/28 13:34:34;;;;;;;;;;;;;;;20.71;42.18;94027.84;10538323;28;2673;-45
2022/09/28 13:39:44;;;;;;;;;;;;;;;20.72;41.79;94021.47;10517717;28;2935;-47
2022/09/28 13:44:47;;;;;;;;;;;;;;;20.70;42.12;94016.53;10545406;28;2875;-48
2022/09/28 13:49:51;;;;;;;;;;;;;;;20.72;41.84;94034.66;10543574;28;2841;-49
2022/09/28 13:54:55;;;;;;;;;;;;;;;20.72;42.32;94040.69;10539286;28;2837;-48
2022/09/28 14:00:00;;;;;;;;;;;;;;;20.72;42.24;94045.19;10534353;28;2592;-48
2022/09/28 14:05:05;;;;;;;;;;;;;;;20.72;41.96;94039.91;10546034;28;2958;-47
2022/09/28 14:10:16;;;;;;;;;;;;;;;20.72;41.82;94034.66;10541317;28;2946;-47
2022/09/28 14:15:29;;;;;;;;;;;;;;;20.71;41.90;94039.13;10533052;28;2583;-46
2022/09/28 14:20:30;;;;;;;;;;;;;;;20.70;41.77;94040.22;10532676;28;2889;-46
2022/09/28 14:25:31;;;;;;;;;;;;;;;20.71;41.75;94033.13;10541283;28;2878;-46
2022/09/28 14:30:41;;;;;;;;;;;;;;;20.72;42.10;94032.00;10516200;28;2885;-47
2022/09/28 14:35:42;;;;;;;;;;;;;;;20.74;42.17;94038.50;10519645;28;2842;-47
2022/09/28 14:41:09;;;;;;;;;;;;;;;20.79;42.40;94035.69;10522122;28;2849;-45
2022/09/28 14:46:10;;;;;;;;;;;;;;;20.81;42.10;94036.16;10517646;28;2828;-47
2022/09/28 14:51:25;;;;;;;;;;;;;;;20.86;43.00;94038.63;10518883;28;2511;-46
2022/09/28 14:56:26;;;;;;;;;;;;;;;20.86;42.76;94030.72;10532327;28;2906;-46
2022/09/28 15:01:26;;;;;;;;;;;;;;;20.89;43.05;94039.84;10514523;28;2920;-47
2022/09/28 15:06:48;;;;;;;;;;;;;;;20.90;42.78;94036.91;10527915;28;2613;-45
2022/09/28 15:11:51;;;;;;;;;;;;;;;20.93;43.68;94036.28;10524071;28;2895;-46
2022/09/28 15:16:51;;;;;;;;;;;;;;;20.94;44.16;94043.06;10537300;28;2598;-47
2022/09/28 15:21:51;;;;;;;;;;;;;;;20.94;43.35;94048.34;10531915;28;2870;-46
2022/09/28 15:26:52;;;;;;;;;;;;;;;20.96;43.80;94054.06;10533121;28;2927;-49
2022/09/28 15:31:52;;;;;;;;;;;;;;;20.95;43.68;94049.13;10537587;28;2897;-46
2022/09/28 15:36:55;;;;;;;;;;;;;;;20.91;43.39;94054.25;10524054;28;3027;-46
2022/09/28 15:41:55;;;;;;;;;;;;;;;20.85;43.83;94060.78;10543858;28;2876;-49
2022/09/28 15:47:04;;;;;;;;;;;;;;;20.86;43.78;94058.91;10556290;27;2899;-46
2022/09/28 15:52:05;;;;;;;;;;;;;;;20.84;43.67;94064.50;10533887;28;2879;-47
2022/09/28 15:57:05;;;;;;;;;;;;;;;20.84;44.34;94067.13;10558891;27;2774;-46
2022/09/28 16:02:08;;;;;;;;;;;;;;;20.85;43.87;94068.69;10546923;28;3018;-48
2022/09/28 16:07:08;;;;;;;;;;;;;;;20.89;44.85;94076.72;10550923;28;2992;-47
2022/09/28 16:12:10;;;;;;;;;;;;;;;20.87;44.43;94074.41;10526771;28;3123;-49
2022/09/28 16:17:14;;;;;;;;;;;;;;;20.80;45.03;94089.91;10523600;28;3007;-48
2022/09/28 16:22:25;;;;;;;;;;;;;;;20.86;44.42;94093.94;10524014;28;3019;-46
2022/09/28 16:27:25;;;;;;;;;;;;;;;20.92;44.23;94087.41;10550978;27;2980;-46
2022/09/28 16:32:26;;;;;;;;;;;;;;;20.87;45.33;94090.22;10547163;28;3045;-48
2022/09/28 16:37:32;;;;;;;;;;;;;;;20.86;44.67;94083.38;10549354;28;3071;-45
2022/09/28 16:42:32;;;;;;;;;;;;;;;20.82;44.17;94079.06;10515396;28;3026;-46
2022/09/28 16:47:33;;;;;;;;;;;;;;;20.75;45.27;94076.16;10505329;28;2732;-49
2022/09/28 16:57:53;;;;;;;;;;;;;;;20.77;44.21;94069.47;10507770;28;3133;-46
2022/09/28 17:02:54;;;;;;;;;;;;;;;20.70;44.42;94082.34;10521601;28;3023;-45
2022/09/28 17:07:59;;;;;;;;;;;;;;;20.70;44.38;94085.00;10527672;28;3037;-49
2022/09/28 17:12:59;;;;;;;;;;;;;;;20.69;43.94;94083.44;10506685;28;3022;-47
2022/09/28 17:17:59;;;;;;;;;;;;;;;20.67;43.74;94079.59;10506466;28;3011;-46
2022/09/28 17:23:00;;;;;;;;;;;;;;;20.68;43.60;94076.63;10510866;28;2833;-50
2022/09/28 17:28:00;;;;;;;;;;;;;;;20.65;43.30;94081.75;10513979;28;2712;-47
2022/09/28 17:33:00;;;;;;;;;;;;;;;20.65;43.06;94081.75;10510326;28;2679;-47
2022/09/28 17:38:01;;;;;;;;;;;;;;;20.66;43.16;94086.72;10496383;28;3011;-47
2022/09/28 17:43:04;;;;;;;;;;;;;;;20.64;42.99;94085.47;10509259;28;2912;-51
2022/09/28 17:48:07;;;;;;;;;;;;;;;20.63;42.98;94079.41;10499815;28;3052;-47
2022/09/28 17:53:08;;;;;;;;;;;;;;;20.64;43.32;94082.84;10517213;28;2809;-47
2022/09/28 17:58:13;;;;;;;;;;;;;;;20.63;43.12;94087.31;10514838;28;3037;-46
2022/09/28 18:03:14;;;;;;;;;;;;;;;20.64;42.96;94106.53;10510232;28;3035;-48
2022/09/28 18:08:16;;;;;;;;;;;;;;;20.64;42.92;94099.41;10534134;27;3092;-46
2022/09/28 18:13:16;;;;;;;;;;;;;;;20.64;43.16;94094.16;10504266;28;3051;-46
2022/09/28 18:18:16;;;;;;;;;;;;;;;20.66;43.18;94105.13;10503679;28;3107;-48
2022/09/28 18:23:16;;;;;;;;;;;;;;;20.69;42.72;94095.84;10515079;28;3079;-49
2022/09/28 18:28:17;;;;;;;;;;;;;;;20.67;43.28;94109.31;10517462;28;3019;-46
2022/09/28 18:33:18;;;;;;;;;;;;;;;20.68;43.16;94108.22;10512149;28;3126;-45
2022/09/28 18:38:18;;;;;;;;;;;;;;;20.69;43.04;94117.66;10517336;28;3035;-45
2022/09/28 18:43:18;;;;;;;;;;;;;;;20.70;43.43;94131.59;10507817;28;3129;-48
2022/09/28 18:48:18;;;;;;;;;;;;;;;20.71;43.38;94138.44;10535020;28;3043;-48
2022/09/28 18:53:19;;;;;;;;;;;;;;;20.71;43.13;94147.09;10522480;28;3099;-44
2022/09/28 18:58:19;;;;;;;;;;;;;;;20.72;43.48;94151.28;10524607;28;3022;-50
2022/09/28 19:03:21;;;;;;;;;;;;;;;20.73;43.26;94152.06;10519997;28;2969;-46
2022/09/28 19:08:22;;;;;;;;;;;;;;;20.74;43.66;94158.84;10507862;28;3019;-48
2022/09/28 19:13:22;;;;;;;;;;;;;;;20.73;43.70;94157.31;10552898;28;3070;-48
2022/09/28 19:18:22;;;;;;;;;;;;;;;20.63;44.22;94161.03;10538515;28;3058;-45
2022/09/28 19:23:23;;;;;;;;;;;;;;;20.59;43.37;94172.50;10532764;28;3112;-47
2022/09/28 19:28:23;;;;;;;;;;;;;;;20.55;43.22;94177.59;10526950;28;3086;-45
2022/09/28 19:33:23;;;;;;;;;;;;;;;20.50;43.42;94185.69;10542262;28;2754;-45
2022/09/28 19:38:24;;;;;;;;;;;;;;;20.46;43.23;94195.28;10513976;28;3137;-48
2022/09/28 19:43:24;;;;;;;;;;;;;;;20.46;43.27;94194.50;10543016;28;3019;-45
2022/09/28 19:48:25;;;;;;;;;;;;;;;20.42;43.42;94202.25;10542047;28;3002;-44
2022/09/28 19:53:26;;;;;;;;;;;;;;;20.38;43.37;94196.03;10556781;27;2742;-47
2022/09/28 19:58:30;;;;;;;;;;;;;;;20.35;42.99;94209.81;10554465;28;3321;-44
2022/09/28 20:03:31;;;;;;;;;;;;;;;20.40;42.38;94216.78;10539102;28;2823;-50
2022/09/28 20:08:31;;;;;;;;;;;;;;;20.45;42.59;94235.84;10501203;28;3166;-45
2022/09/28 20:13:32;;;;;;;;;;;;;;;20.49;42.14;94242.03;10538830;28;3141;-46
2022/09/28 20:18:33;;;;;;;;;;;;;;;20.54;42.35;94239.25;10544091;28;2986;-44
2022/09/28 20:23:37;;;;;;;;;;;;;;;20.56;42.49;94237.09;10524488;28;2629;-45
2022/09/28 20:28:37;;;;;;;;;;;;;;;20.56;42.28;94246.84;10537278;28;3114;-47
2022/09/28 20:33:38;;;;;;;;;;;;;;;20.58;42.34;94247.31;10542072;28;3033;-46
2022/09/28 20:38:39;;;;;;;;;;;;;;;20.55;43.05;94248.69;10532955;28;2850;-45
2022/09/28 20:43:39;;;;;;;;;;;;;;;20.53;42.62;94248.22;10538788;28;3178;-47
2022/09/28 20:48:40;;;;;;;;;;;;;;;20.50;42.69;94248.84;10550538;28;2802;-47
2022/09/28 20:53:40;;;;;;;;;;;;;;;20.48;42.63;94261.56;10523550;28;3143;-50
2022/09/28 20:58:41;;;;;;;;;;;;;;;20.46;42.60;94262.94;10522762;28;2954;-47
2022/09/28 21:03:45;;;;;;;;;;;;;;;20.43;42.06;94260.91;10529299;28;2697;-45
2022/09/28 21:08:45;;;;;;;;;;;;;;;20.42;42.06;94257.53;10548970;28;3035;-46
2022/09/28 21:13:46;;;;;;;;;;;;;;;20.40;41.88;94254.41;10544588;28;2999;-46
2022/09/28 21:18:46;;;;;;;;;;;;;;;20.36;41.88;94255.34;10552912;28;2685;-46
2022/09/28 21:23:47;;;;;;;;;;;;;;;20.36;41.85;94252.69;10538526;28;2998;-49
2022/09/28 21:28:47;;;;;;;;;;;;;;;20.33;41.36;94259.34;10540557;28;2764;-45
2022/09/28 21:33:47;;;;;;;;;;;;;;;20.31;41.48;94253.63;10538326;28;3050;-51
2022/09/28 21:38:54;;;;;;;;;;;;;;;20.31;41.74;94251.00;10517389;28;2959;-50
2022/09/28 21:43:55;;;;;;;;;;;;;;;20.28;41.72;94248.94;10536990;28;2994;-47
2022/09/28 21:48:55;;;;;;;;;;;;;;;20.27;41.81;94244.78;10539353;28;3003;-47
2022/09/28 21:53:55;;;;;;;;;;;;;;;20.27;41.67;94248.19;10531032;28;3151;-47
2022/09/28 21:59:02;;;;;;;;;;;;;;;20.36;41.85;94250.81;10521432;28;2971;-47
2022/09/28 22:04:02;;;;;;;;;;;;;;;20.42;42.22;94246.22;10515094;28;2708;-45
2022/09/28 22:09:02;;;;;;;;;;;;;;;20.42;42.49;94259.38;10519853;28;3043;-46
2022/09/28 22:14:12;;;;;;;;;;;;;;;20.42;42.54;94268.03;10505357;28;3137;-45
2022/09/28 22:19:13;;;;;;;;;;;;;;;20.45;42.79;94269.25;10507741;28;3021;-46
2022/09/28 22:24:13;;;;;;;;;;;;;;;20.43;43.01;94281.97;10510511;28;3095;-47
2022/09/28 22:29:23;;;;;;;;;;;;;;;20.42;42.80;94272.53;10523194;28;3119;-47
2022/09/28 22:34:26;;;;;;;;;;;;;;;20.41;42.87;94274.38;10516097;28;2798;-45
2022/09/28 22:39:26;;;;;;;;;;;;;;;20.37;42.84;94276.06;10504213;28;2900;-52
2022/09/28 22:44:26;;;;;;;;;;;;;;;20.34;42.85;94266.16;10531606;28;2989;-48
2022/09/28 22:49:27;;;;;;;;;;;;;;;20.34;42.74;94271.41;10523789;28;3035;-45
2022/09/28 22:54:27;;;;;;;;;;;;;;;20.33;42.72;94283.03;10526971;28;3015;-48
2022/09/28 22:59:27;;;;;;;;;;;;;;;20.34;43.47;94275.91;10541754;28;3145;-45
2022/09/28 23:04:28;;;;;;;;;;;;;;;20.32;43.30;94259.66;10531302;28;3114;-45
2022/09/28 23:09:28;;;;;;;;;;;;;;;20.30;43.33;94267.84;10528048;28;2698;-48
2022/09/28 23:14:29;;;;;;;;;;;;;;;20.27;43.35;94271.88;10519062;28;3071;-50
2022/09/28 23:19:30;;;;;;;;;;;;;;;20.25;43.52;94263.53;10525125;28;2983;-48
2022/09/28 23:24:30;;;;;;;;;;;;;;;20.25;43.40;94255.63;10504689;28;2724;-48
2022/09/28 23:29:30;;;;;;;;;;;;;;;20.24;43.73;94253.28;10514466;28;2996;-45
2022/09/28 23:34:30;;;;;;;;;;;;;;;20.24;43.52;94261.97;10519893;28;3023;-44
2022/09/28 23:39:31;;;;;;;;;;;;;;;20.20;43.69;94252.34;10526565;28;2676;-47
2022/09/28 23:44:32;;;;;;;;;;;;;;;20.19;43.65;94246.34;10518772;28;2721;-44
2022/09/28 23:49:32;;;;;;;;;;;;;;;20.18;43.84;94243.97;10522498;28;3003;-45
2022/09/28 23:54:32;;;;;;;;;;;;;;;20.18;43.77;94243.97;10518843;28;3411;-46
2022/09/28 23:59:32;;;;;;;;;;;;;;;20.15;43.62;94239.31;10525884;28;2805;-47
